sensor_id;sensor_type;location;lat;lon;timestamp;P1;P2;P0
31330;PMS5003;34067;39.548;-76.088;2023-03-21T00:01:02;10;9;
31330;PMS5003;34067;39.548;-76.088;2023-03-21T00:03:31;9;9;
31330;PMS5003;34067;39.548;-76.088;2023-03-21T00:06:04;12;9;
31330;PMS5003;34067;39.548;-76.088;2023-03-21T00:08:32;10;9;
31330;PMS5003;34067;39.548;-76.088;2023-03-21T00:11:02;9;9;
31330;PMS5003;34067;39.548;-76.088;2023-03-21T00:13:32;12;10;
31330;PMS5003;34067;39.548;-76.088;2023-03-21T00:16:03;10;10;
31330;PMS5003;34067;39.548;-76.088;2023-03-21T00:18:33;8;7;
31330;PMS5003;34067;39.548;-76.088;2023-03-21T00:21:02;9;9;
31330;PMS5003;34067;39.548;-76.088;2023-03-21T00:23:32;11;9;
31330;PMS5003;34067;39.548;-76.088;2023-03-21T00:26:01;9;8;
31330;PMS5003;34067;39.548;-76.088;2023-03-21T00:28:29;9;7;
31330;PMS5003;34067;39.548;-76.088;2023-03-21T00:30:57;9;8;
31330;PMS5003;34067;39.548;-76.088;2023-03-21T00:33:26;7;6;
31330;PMS5003;34067;39.548;-76.088;2023-03-21T00:35:54;13;11;
31330;PMS5003;34067;39.548;-76.088;2023-03-21T00:38:22;7;7;
31330;PMS5003;34067;39.548;-76.088;2023-03-21T00:40:51;11;8;
31330;PMS5003;34067;39.548;-76.088;2023-03-21T00:43:19;8;8;
31330;PMS5003;34067;39.548;-76.088;2023-03-21T00:45:47;10;8;
31330;PMS5003;34067;39.548;-76.088;2023-03-21T00:48:16;11;11;
31330;PMS5003;34067;39.548;-76.088;2023-03-21T00:50:45;11;11;
31330;PMS5003;34067;39.548;-76.088;2023-03-21T00:53:13;11;10;
31330;PMS5003;34067;39.548;-76.088;2023-03-21T00:55:41;14;12;
31330;PMS5003;34067;39.548;-76.088;2023-03-21T00:58:09;13;12;
31330;PMS5003;34067;39.548;-76.088;2023-03-21T01:00:38;8;8;
31330;PMS5003;34067;39.548;-76.088;2023-03-21T01:03:07;7;7;
31330;PMS5003;34067;39.548;-76.088;2023-03-21T01:05:38;7;7;
31330;PMS5003;34067;39.548;-76.088;2023-03-21T01:08:07;7;6;
31330;PMS5003;34067;39.548;-76.088;2023-03-21T01:10:37;7;7;
31330;PMS5003;34067;39.548;-76.088;2023-03-21T01:13:05;8;7;
31330;PMS5003;34067;39.548;-76.088;2023-03-21T01:15:33;14;11;
31330;PMS5003;34067;39.548;-76.088;2023-03-21T01:18:01;8;8;
31330;PMS5003;34067;39.548;-76.088;2023-03-21T01:20:29;11;11;
31330;PMS5003;34067;39.548;-76.088;2023-03-21T01:22:57;10;10;
31330;PMS5003;34067;39.548;-76.088;2023-03-21T01:25:24;8;8;
31330;PMS5003;34067;39.548;-76.088;2023-03-21T01:27:52;10;10;
31330;PMS5003;34067;39.548;-76.088;2023-03-21T01:30:20;12;10;
31330;PMS5003;34067;39.548;-76.088;2023-03-21T01:32:47;12;11;
31330;PMS5003;34067;39.548;-76.088;2023-03-21T01:35:15;13;12;
31330;PMS5003;34067;39.548;-76.088;2023-03-21T01:37:43;8;8;
31330;PMS5003;34067;39.548;-76.088;2023-03-21T01:40:12;11;10;
31330;PMS5003;34067;39.548;-76.088;2023-03-21T01:42:44;14;13;
31330;PMS5003;34067;39.548;-76.088;2023-03-21T01:47:23;12;10;
31330;PMS5003;34067;39.548;-76.088;2023-03-21T01:49:51;10;10;
31330;PMS5003;34067;39.548;-76.088;2023-03-21T01:52:23;12;12;
31330;PMS5003;34067;39.548;-76.088;2023-03-21T01:54:55;12;12;
31330;PMS5003;34067;39.548;-76.088;2023-03-21T01:57:24;32;30;
31330;PMS5003;34067;39.548;-76.088;2023-03-21T01:59:56;47;47;
31330;PMS5003;34067;39.548;-76.088;2023-03-21T02:02:26;89;89;
31330;PMS5003;34067;39.548;-76.088;2023-03-21T02:04:57;53;45;
31330;PMS5003;34067;39.548;-76.088;2023-03-21T02:07:28;45;44;
31330;PMS5003;34067;39.548;-76.088;2023-03-21T02:09:58;38;36;
31330;PMS5003;34067;39.548;-76.088;2023-03-21T02:12:26;115;113;
31330;PMS5003;34067;39.548;-76.088;2023-03-21T02:14:54;17;14;
31330;PMS5003;34067;39.548;-76.088;2023-03-21T02:17:25;31;31;
31330;PMS5003;34067;39.548;-76.088;2023-03-21T02:20:05;37;34;
31330;PMS5003;34067;39.548;-76.088;2023-03-21T02:22:34;39;37;
31330;PMS5003;34067;39.548;-76.088;2023-03-21T02:25:26;23;22;
31330;PMS5003;34067;39.548;-76.088;2023-03-21T02:28:19;14;13;
31330;PMS5003;34067;39.548;-76.088;2023-03-21T02:31:13;19;19;
31330;PMS5003;34067;39.548;-76.088;2023-03-21T02:33:58;13;13;
31330;PMS5003;34067;39.548;-76.088;2023-03-21T02:36:59;15;13;
31330;PMS5003;34067;39.548;-76.088;2023-03-21T02:39:37;25;23;
31330;PMS5003;34067;39.548;-76.088;2023-03-21T02:42:15;18;17;
31330;PMS5003;34067;39.548;-76.088;2023-03-21T02:44:48;15;14;
31330;PMS5003;34067;39.548;-76.088;2023-03-21T02:47:27;16;14;
31330;PMS5003;34067;39.548;-76.088;2023-03-21T02:50:03;13;12;
31330;PMS5003;34067;39.548;-76.088;2023-03-21T02:52:37;13;13;
31330;PMS5003;34067;39.548;-76.088;2023-03-21T02:55:10;24;21;
31330;PMS5003;34067;39.548;-76.088;2023-03-21T02:57:40;16;16;
31330;PMS5003;34067;39.548;-76.088;2023-03-21T03:00:12;16;16;
31330;PMS5003;34067;39.548;-76.088;2023-03-21T03:02:44;19;18;
31330;PMS5003;34067;39.548;-76.088;2023-03-21T03:05:13;19;19;
31330;PMS5003;34067;39.548;-76.088;2023-03-21T03:07:46;16;16;
31330;PMS5003;34067;39.548;-76.088;2023-03-21T03:10:30;89;74;
31330;PMS5003;34067;39.548;-76.088;2023-03-21T03:13:10;51;49;
31330;PMS5003;34067;39.548;-76.088;2023-03-21T03:15:52;17;16;
31330;PMS5003;34067;39.548;-76.088;2023-03-21T03:18:30;36;36;
31330;PMS5003;34067;39.548;-76.088;2023-03-21T03:21:08;18;16;
31330;PMS5003;34067;39.548;-76.088;2023-03-21T03:23:46;18;16;
31330;PMS5003;34067;39.548;-76.088;2023-03-21T03:26:18;17;17;
31330;PMS5003;34067;39.548;-76.088;2023-03-21T03:28:52;21;20;
31330;PMS5003;34067;39.548;-76.088;2023-03-21T03:31:25;35;33;
31330;PMS5003;34067;39.548;-76.088;2023-03-21T03:33:58;18;16;
31330;PMS5003;34067;39.548;-76.088;2023-03-21T03:36:32;24;22;
31330;PMS5003;34067;39.548;-76.088;2023-03-21T03:39:06;21;18;
31330;PMS5003;34067;39.548;-76.088;2023-03-21T03:41:39;17;16;
31330;PMS5003;34067;39.548;-76.088;2023-03-21T03:44:12;25;24;
31330;PMS5003;34067;39.548;-76.088;2023-03-21T03:46:42;27;27;
31330;PMS5003;34067;39.548;-76.088;2023-03-21T03:49:16;36;36;
31330;PMS5003;34067;39.548;-76.088;2023-03-21T03:51:49;30;27;
31330;PMS5003;34067;39.548;-76.088;2023-03-21T03:54:23;27;26;
31330;PMS5003;34067;39.548;-76.088;2023-03-21T03:56:58;43;42;
31330;PMS5003;34067;39.548;-76.088;2023-03-21T03:59:26;70;66;
31330;PMS5003;34067;39.548;-76.088;2023-03-21T04:01:54;478;474;
31330;PMS5003;34067;39.548;-76.088;2023-03-21T04:04:22;390;390;
31330;PMS5003;34067;39.548;-76.088;2023-03-21T04:06:49;379;379;
31330;PMS5003;34067;39.548;-76.088;2023-03-21T04:09:17;351;349;
31330;PMS5003;34067;39.548;-76.088;2023-03-21T04:11:45;326;326;
31330;PMS5003;34067;39.548;-76.088;2023-03-21T04:14:12;297;296;
31330;PMS5003;34067;39.548;-76.088;2023-03-21T04:16:40;298;295;
31330;PMS5003;34067;39.548;-76.088;2023-03-21T04:19:08;339;338;
31330;PMS5003;34067;39.548;-76.088;2023-03-21T04:21:36;269;269;
31330;PMS5003;34067;39.548;-76.088;2023-03-21T04:24:05;242;241;
31330;PMS5003;34067;39.548;-76.088;2023-03-21T04:26:33;301;299;
31330;PMS5003;34067;39.548;-76.088;2023-03-21T04:29:01;282;281;
31330;PMS5003;34067;39.548;-76.088;2023-03-21T04:31:29;271;270;
31330;PMS5003;34067;39.548;-76.088;2023-03-21T04:34:00;224;224;
31330;PMS5003;34067;39.548;-76.088;2023-03-21T04:36:29;176;176;
31330;PMS5003;34067;39.548;-76.088;2023-03-21T04:38:58;122;120;
31330;PMS5003;34067;39.548;-76.088;2023-03-21T04:41:27;82;82;
31330;PMS5003;34067;39.548;-76.088;2023-03-21T04:43:56;145;145;
31330;PMS5003;34067;39.548;-76.088;2023-03-21T04:46:25;55;54;
31330;PMS5003;34067;39.548;-76.088;2023-03-21T04:48:53;67;66;
31330;PMS5003;34067;39.548;-76.088;2023-03-21T04:51:21;90;90;
31330;PMS5003;34067;39.548;-76.088;2023-03-21T04:53:49;75;72;
31330;PMS5003;34067;39.548;-76.088;2023-03-21T04:56:17;18;17;
31330;PMS5003;34067;39.548;-76.088;2023-03-21T04:58:45;12;12;
31330;PMS5003;34067;39.548;-76.088;2023-03-21T05:03:11;12;12;
31330;PMS5003;34067;39.548;-76.088;2023-03-21T05:05:39;22;20;
31330;PMS5003;34067;39.548;-76.088;2023-03-21T05:08:07;18;18;
31330;PMS5003;34067;39.548;-76.088;2023-03-21T05:10:35;24;23;
31330;PMS5003;34067;39.548;-76.088;2023-03-21T05:13:04;22;22;
31330;PMS5003;34067;39.548;-76.088;2023-03-21T05:15:32;89;85;
31330;PMS5003;34067;39.548;-76.088;2023-03-21T05:17:59;170;168;
31330;PMS5003;34067;39.548;-76.088;2023-03-21T05:20:28;85;83;
31330;PMS5003;34067;39.548;-76.088;2023-03-21T05:22:55;117;114;
31330;PMS5003;34067;39.548;-76.088;2023-03-21T05:25:24;51;49;
31330;PMS5003;34067;39.548;-76.088;2023-03-21T05:27:52;22;20;
31330;PMS5003;34067;39.548;-76.088;2023-03-21T05:30:19;21;19;
31330;PMS5003;34067;39.548;-76.088;2023-03-21T05:32:48;82;82;
31330;PMS5003;34067;39.548;-76.088;2023-03-21T05:35:15;174;171;
31330;PMS5003;34067;39.548;-76.088;2023-03-21T05:37:43;106;105;
31330;PMS5003;34067;39.548;-76.088;2023-03-21T05:40:11;64;63;
31330;PMS5003;34067;39.548;-76.088;2023-03-21T05:42:39;63;63;
31330;PMS5003;34067;39.548;-76.088;2023-03-21T05:45:07;182;180;
31330;PMS5003;34067;39.548;-76.088;2023-03-21T05:47:35;29;25;
31330;PMS5003;34067;39.548;-76.088;2023-03-21T05:50:03;44;42;
31330;PMS5003;34067;39.548;-76.088;2023-03-21T05:52:32;61;58;
31330;PMS5003;34067;39.548;-76.088;2023-03-21T05:55:00;30;30;
31330;PMS5003;34067;39.548;-76.088;2023-03-21T05:57:28;23;21;
31330;PMS5003;34067;39.548;-76.088;2023-03-21T05:59:56;98;98;
31330;PMS5003;34067;39.548;-76.088;2023-03-21T06:02:24;35;31;
31330;PMS5003;34067;39.548;-76.088;2023-03-21T06:04:52;23;19;
31330;PMS5003;34067;39.548;-76.088;2023-03-21T06:07:20;68;68;
31330;PMS5003;34067;39.548;-76.088;2023-03-21T06:09:48;24;22;
31330;PMS5003;34067;39.548;-76.088;2023-03-21T06:12:16;28;28;
31330;PMS5003;34067;39.548;-76.088;2023-03-21T06:14:44;19;19;
31330;PMS5003;34067;39.548;-76.088;2023-03-21T06:17:12;106;106;
31330;PMS5003;34067;39.548;-76.088;2023-03-21T06:19:40;53;53;
31330;PMS5003;34067;39.548;-76.088;2023-03-21T06:22:08;87;85;
31330;PMS5003;34067;39.548;-76.088;2023-03-21T06:24:36;23;21;
31330;PMS5003;34067;39.548;-76.088;2023-03-21T06:27:03;55;53;
31330;PMS5003;34067;39.548;-76.088;2023-03-21T06:29:32;22;19;
31330;PMS5003;34067;39.548;-76.088;2023-03-21T06:32:00;17;17;
31330;PMS5003;34067;39.548;-76.088;2023-03-21T06:34:28;43;39;
31330;PMS5003;34067;39.548;-76.088;2023-03-21T06:36:56;35;31;
31330;PMS5003;34067;39.548;-76.088;2023-03-21T06:39:23;35;35;
31330;PMS5003;34067;39.548;-76.088;2023-03-21T06:41:51;37;36;
31330;PMS5003;34067;39.548;-76.088;2023-03-21T06:44:19;43;38;
31330;PMS5003;34067;39.548;-76.088;2023-03-21T06:46:47;28;27;
31330;PMS5003;34067;39.548;-76.088;2023-03-21T06:49:15;27;27;
31330;PMS5003;34067;39.548;-76.088;2023-03-21T06:51:43;57;57;
31330;PMS5003;34067;39.548;-76.088;2023-03-21T06:54:11;29;27;
31330;PMS5003;34067;39.548;-76.088;2023-03-21T06:56:40;42;41;
31330;PMS5003;34067;39.548;-76.088;2023-03-21T06:59:08;50;50;
31330;PMS5003;34067;39.548;-76.088;2023-03-21T07:01:36;40;38;
31330;PMS5003;34067;39.548;-76.088;2023-03-21T07:04:04;28;28;
31330;PMS5003;34067;39.548;-76.088;2023-03-21T07:06:31;29;27;
31330;PMS5003;34067;39.548;-76.088;2023-03-21T07:08:59;28;28;
31330;PMS5003;34067;39.548;-76.088;2023-03-21T07:11:27;27;25;
31330;PMS5003;34067;39.548;-76.088;2023-03-21T07:13:55;76;75;
31330;PMS5003;34067;39.548;-76.088;2023-03-21T07:16:24;29;28;
31330;PMS5003;34067;39.548;-76.088;2023-03-21T07:18:51;21;18;
31330;PMS5003;34067;39.548;-76.088;2023-03-21T07:21:20;25;24;
31330;PMS5003;34067;39.548;-76.088;2023-03-21T07:23:48;38;38;
31330;PMS5003;34067;39.548;-76.088;2023-03-21T07:26:16;25;24;
31330;PMS5003;34067;39.548;-76.088;2023-03-21T07:28:44;25;25;
31330;PMS5003;34067;39.548;-76.088;2023-03-21T07:31:13;24;24;
31330;PMS5003;34067;39.548;-76.088;2023-03-21T07:33:42;37;37;
31330;PMS5003;34067;39.548;-76.088;2023-03-21T07:36:11;28;28;
31330;PMS5003;34067;39.548;-76.088;2023-03-21T07:38:40;31;29;
31330;PMS5003;34067;39.548;-76.088;2023-03-21T07:41:09;25;25;
31330;PMS5003;34067;39.548;-76.088;2023-03-21T07:43:37;18;18;
31330;PMS5003;34067;39.548;-76.088;2023-03-21T07:46:05;31;31;
31330;PMS5003;34067;39.548;-76.088;2023-03-21T07:48:34;58;56;
31330;PMS5003;34067;39.548;-76.088;2023-03-21T07:51:02;29;29;
31330;PMS5003;34067;39.548;-76.088;2023-03-21T07:53:30;24;24;
31330;PMS5003;34067;39.548;-76.088;2023-03-21T07:55:58;42;39;
31330;PMS5003;34067;39.548;-76.088;2023-03-21T07:58:26;24;22;
31330;PMS5003;34067;39.548;-76.088;2023-03-21T08:00:54;52;49;
31330;PMS5003;34067;39.548;-76.088;2023-03-21T08:03:24;26;24;
31330;PMS5003;34067;39.548;-76.088;2023-03-21T08:05:58;37;37;
31330;PMS5003;34067;39.548;-76.088;2023-03-21T08:08:26;32;30;
31330;PMS5003;34067;39.548;-76.088;2023-03-21T08:10:54;43;41;
31330;PMS5003;34067;39.548;-76.088;2023-03-21T08:13:22;36;35;
31330;PMS5003;34067;39.548;-76.088;2023-03-21T08:15:51;47;46;
31330;PMS5003;34067;39.548;-76.088;2023-03-21T08:18:19;29;28;
31330;PMS5003;34067;39.548;-76.088;2023-03-21T08:20:50;36;33;
31330;PMS5003;34067;39.548;-76.088;2023-03-21T08:23:18;39;38;
31330;PMS5003;34067;39.548;-76.088;2023-03-21T08:25:46;50;50;
31330;PMS5003;34067;39.548;-76.088;2023-03-21T08:28:17;53;53;
31330;PMS5003;34067;39.548;-76.088;2023-03-21T08:30:46;47;44;
31330;PMS5003;34067;39.548;-76.088;2023-03-21T08:33:14;40;38;
31330;PMS5003;34067;39.548;-76.088;2023-03-21T08:35:43;68;68;
31330;PMS5003;34067;39.548;-76.088;2023-03-21T08:38:11;58;58;
31330;PMS5003;34067;39.548;-76.088;2023-03-21T08:40:39;77;74;
31330;PMS5003;34067;39.548;-76.088;2023-03-21T08:43:07;70;67;
31330;PMS5003;34067;39.548;-76.088;2023-03-21T08:45:35;41;40;
31330;PMS5003;34067;39.548;-76.088;2023-03-21T08:48:03;16;15;
31330;PMS5003;34067;39.548;-76.088;2023-03-21T08:50:31;13;13;
31330;PMS5003;34067;39.548;-76.088;2023-03-21T08:52:59;15;13;
31330;PMS5003;34067;39.548;-76.088;2023-03-21T08:55:28;19;16;
31330;PMS5003;34067;39.548;-76.088;2023-03-21T08:57:55;19;16;
31330;PMS5003;34067;39.548;-76.088;2023-03-21T09:00:23;14;14;
31330;PMS5003;34067;39.548;-76.088;2023-03-21T09:02:51;16;15;
31330;PMS5003;34067;39.548;-76.088;2023-03-21T09:05:19;14;14;
31330;PMS5003;34067;39.548;-76.088;2023-03-21T09:07:47;17;16;
31330;PMS5003;34067;39.548;-76.088;2023-03-21T09:10:16;14;14;
31330;PMS5003;34067;39.548;-76.088;2023-03-21T09:12:46;20;19;
31330;PMS5003;34067;39.548;-76.088;2023-03-21T09:15:15;15;15;
31330;PMS5003;34067;39.548;-76.088;2023-03-21T09:17:42;18;16;
31330;PMS5003;34067;39.548;-76.088;2023-03-21T09:20:10;19;18;
31330;PMS5003;34067;39.548;-76.088;2023-03-21T09:22:38;19;16;
31330;PMS5003;34067;39.548;-76.088;2023-03-21T09:25:07;19;18;
31330;PMS5003;34067;39.548;-76.088;2023-03-21T09:27:35;20;19;
31330;PMS5003;34067;39.548;-76.088;2023-03-21T09:30:04;19;19;
31330;PMS5003;34067;39.548;-76.088;2023-03-21T09:32:34;21;19;
31330;PMS5003;34067;39.548;-76.088;2023-03-21T09:35:03;24;20;
31330;PMS5003;34067;39.548;-76.088;2023-03-21T09:37:32;18;15;
31330;PMS5003;34067;39.548;-76.088;2023-03-21T09:39:59;18;18;
31330;PMS5003;34067;39.548;-76.088;2023-03-21T09:42:30;18;18;
31330;PMS5003;34067;39.548;-76.088;2023-03-21T09:45:09;18;16;
31330;PMS5003;34067;39.548;-76.088;2023-03-21T09:47:44;18;16;
31330;PMS5003;34067;39.548;-76.088;2023-03-21T09:50:14;25;19;
31330;PMS5003;34067;39.548;-76.088;2023-03-21T09:52:48;16;16;
31330;PMS5003;34067;39.548;-76.088;2023-03-21T09:55:21;18;16;
31330;PMS5003;34067;39.548;-76.088;2023-03-21T09:57:51;21;20;
31330;PMS5003;34067;39.548;-76.088;2023-03-21T10:00:27;20;16;
31330;PMS5003;34067;39.548;-76.088;2023-03-21T10:03:02;18;18;
31330;PMS5003;34067;39.548;-76.088;2023-03-21T10:05:32;23;20;
31330;PMS5003;34067;39.548;-76.088;2023-03-21T10:08:01;19;18;
31330;PMS5003;34067;39.548;-76.088;2023-03-21T10:10:34;23;19;
31330;PMS5003;34067;39.548;-76.088;2023-03-21T10:13:09;14;14;
31330;PMS5003;34067;39.548;-76.088;2023-03-21T10:15:42;20;20;
31330;PMS5003;34067;39.548;-76.088;2023-03-21T10:18:12;18;18;
31330;PMS5003;34067;39.548;-76.088;2023-03-21T10:20:46;20;19;
31330;PMS5003;34067;39.548;-76.088;2023-03-21T10:23:16;21;20;
31330;PMS5003;34067;39.548;-76.088;2023-03-21T10:25:47;29;25;
31330;PMS5003;34067;39.548;-76.088;2023-03-21T10:28:18;21;19;
31330;PMS5003;34067;39.548;-76.088;2023-03-21T10:30:48;24;23;
31330;PMS5003;34067;39.548;-76.088;2023-03-21T10:33:19;24;20;
31330;PMS5003;34067;39.548;-76.088;2023-03-21T10:35:51;25;24;
31330;PMS5003;34067;39.548;-76.088;2023-03-21T10:38:22;23;20;
31330;PMS5003;34067;39.548;-76.088;2023-03-21T10:40:52;21;19;
31330;PMS5003;34067;39.548;-76.088;2023-03-21T10:43:36;28;26;
31330;PMS5003;34067;39.548;-76.088;2023-03-21T10:46:08;21;19;
31330;PMS5003;34067;39.548;-76.088;2023-03-21T10:48:39;23;20;
31330;PMS5003;34067;39.548;-76.088;2023-03-21T10:51:08;23;23;
31330;PMS5003;34067;39.548;-76.088;2023-03-21T10:53:38;23;20;
31330;PMS5003;34067;39.548;-76.088;2023-03-21T10:56:07;23;22;
31330;PMS5003;34067;39.548;-76.088;2023-03-21T10:58:38;24;23;
31330;PMS5003;34067;39.548;-76.088;2023-03-21T11:01:12;22;18;
31330;PMS5003;34067;39.548;-76.088;2023-03-21T11:03:48;19;17;
31330;PMS5003;34067;39.548;-76.088;2023-03-21T11:06:22;24;22;
31330;PMS5003;34067;39.548;-76.088;2023-03-21T11:08:55;25;23;
31330;PMS5003;34067;39.548;-76.088;2023-03-21T11:11:27;19;18;
31330;PMS5003;34067;39.548;-76.088;2023-03-21T11:14:01;33;30;
31330;PMS5003;34067;39.548;-76.088;2023-03-21T11:16:36;22;20;
31330;PMS5003;34067;39.548;-76.088;2023-03-21T11:19:14;23;22;
31330;PMS5003;34067;39.548;-76.088;2023-03-21T11:21:43;31;27;
31330;PMS5003;34067;39.548;-76.088;2023-03-21T11:24:13;37;33;
31330;PMS5003;34067;39.548;-76.088;2023-03-21T11:26:44;30;29;
31330;PMS5003;34067;39.548;-76.088;2023-03-21T11:29:19;26;22;
31330;PMS5003;34067;39.548;-76.088;2023-03-21T11:31:53;24;22;
31330;PMS5003;34067;39.548;-76.088;2023-03-21T11:34:26;24;22;
31330;PMS5003;34067;39.548;-76.088;2023-03-21T11:37:00;33;27;
31330;PMS5003;34067;39.548;-76.088;2023-03-21T11:39:30;27;24;
31330;PMS5003;34067;39.548;-76.088;2023-03-21T11:42:01;27;23;
31330;PMS5003;34067;39.548;-76.088;2023-03-21T11:44:31;25;24;
31330;PMS5003;34067;39.548;-76.088;2023-03-21T11:47:01;25;23;
31330;PMS5003;34067;39.548;-76.088;2023-03-21T11:49:29;28;24;
31330;PMS5003;34067;39.548;-76.088;2023-03-21T11:52:07;26;23;
31330;PMS5003;34067;39.548;-76.088;2023-03-21T11:54:51;26;26;
31330;PMS5003;34067;39.548;-76.088;2023-03-21T11:57:31;40;32;
31330;PMS5003;34067;39.548;-76.088;2023-03-21T12:00:10;31;29;
31330;PMS5003;34067;39.548;-76.088;2023-03-21T12:02:51;33;29;
31330;PMS5003;34067;39.548;-76.088;2023-03-21T12:05:33;20;19;
31330;PMS5003;34067;39.548;-76.088;2023-03-21T12:08:05;26;25;
31330;PMS5003;34067;39.548;-76.088;2023-03-21T12:10:49;29;26;
31330;PMS5003;34067;39.548;-76.088;2023-03-21T12:13:28;26;24;
31330;PMS5003;34067;39.548;-76.088;2023-03-21T12:16:12;34;29;
31330;PMS5003;34067;39.548;-76.088;2023-03-21T12:18:58;29;25;
31330;PMS5003;34067;39.548;-76.088;2023-03-21T12:21:37;33;31;
31330;PMS5003;34067;39.548;-76.088;2023-03-21T12:24:11;35;31;
31330;PMS5003;34067;39.548;-76.088;2023-03-21T12:26:48;27;27;
31330;PMS5003;34067;39.548;-76.088;2023-03-21T12:29:32;27;25;
31330;PMS5003;34067;39.548;-76.088;2023-03-21T12:32:14;27;27;
31330;PMS5003;34067;39.548;-76.088;2023-03-21T12:34:52;32;26;
31330;PMS5003;34067;39.548;-76.088;2023-03-21T12:37:36;32;29;
31330;PMS5003;34067;39.548;-76.088;2023-03-21T12:40:21;31;29;
31330;PMS5003;34067;39.548;-76.088;2023-03-21T12:43:09;29;25;
31330;PMS5003;34067;39.548;-76.088;2023-03-21T12:45:54;31;30;
31330;PMS5003;34067;39.548;-76.088;2023-03-21T12:48:26;35;29;
31330;PMS5003;34067;39.548;-76.088;2023-03-21T12:51:00;28;28;
31330;PMS5003;34067;39.548;-76.088;2023-03-21T12:53:34;38;35;
31330;PMS5003;34067;39.548;-76.088;2023-03-21T12:56:13;31;29;
31330;PMS5003;34067;39.548;-76.088;2023-03-21T12:58:48;28;26;
31330;PMS5003;34067;39.548;-76.088;2023-03-21T13:01:24;33;30;
31330;PMS5003;34067;39.548;-76.088;2023-03-21T13:03:58;32;30;
31330;PMS5003;34067;39.548;-76.088;2023-03-21T13:06:35;96;93;
31330;PMS5003;34067;39.548;-76.088;2023-03-21T13:09:06;52;42;
31330;PMS5003;34067;39.548;-76.088;2023-03-21T13:11:41;38;35;
31330;PMS5003;34067;39.548;-76.088;2023-03-21T13:14:12;27;25;
31330;PMS5003;34067;39.548;-76.088;2023-03-21T13:16:44;31;30;
31330;PMS5003;34067;39.548;-76.088;2023-03-21T13:19:19;42;37;
31330;PMS5003;34067;39.548;-76.088;2023-03-21T13:21:56;32;31;
31330;PMS5003;34067;39.548;-76.088;2023-03-21T13:24:36;32;31;
31330;PMS5003;34067;39.548;-76.088;2023-03-21T13:27:13;39;37;
31330;PMS5003;34067;39.548;-76.088;2023-03-21T13:29:58;30;29;
31330;PMS5003;34067;39.548;-76.088;2023-03-21T13:32:28;36;30;
31330;PMS5003;34067;39.548;-76.088;2023-03-21T13:34:59;28;27;
31330;PMS5003;34067;39.548;-76.088;2023-03-21T13:37:29;33;30;
31330;PMS5003;34067;39.548;-76.088;2023-03-21T13:40:00;34;30;
31330;PMS5003;34067;39.548;-76.088;2023-03-21T13:42:31;29;27;
31330;PMS5003;34067;39.548;-76.088;2023-03-21T13:45:00;31;29;
31330;PMS5003;34067;39.548;-76.088;2023-03-21T13:47:38;29;26;
31330;PMS5003;34067;39.548;-76.088;2023-03-21T13:50:33;27;26;
31330;PMS5003;34067;39.548;-76.088;2023-03-21T13:53:19;20;20;
31330;PMS5003;34067;39.548;-76.088;2023-03-21T13:55:59;31;29;
31330;PMS5003;34067;39.548;-76.088;2023-03-21T13:58:36;24;20;
31330;PMS5003;34067;39.548;-76.088;2023-03-21T14:01:20;25;23;
31330;PMS5003;34067;39.548;-76.088;2023-03-21T14:03:57;26;24;
31330;PMS5003;34067;39.548;-76.088;2023-03-21T14:06:30;37;36;
31330;PMS5003;34067;39.548;-76.088;2023-03-21T14:09:02;95;93;
31330;PMS5003;34067;39.548;-76.088;2023-03-21T14:11:31;75;74;
31330;PMS5003;34067;39.548;-76.088;2023-03-21T14:14:01;25;25;
31330;PMS5003;34067;39.548;-76.088;2023-03-21T14:16:31;25;25;
31330;PMS5003;34067;39.548;-76.088;2023-03-21T14:19:01;36;35;
31330;PMS5003;34067;39.548;-76.088;2023-03-21T14:21:31;26;25;
31330;PMS5003;34067;39.548;-76.088;2023-03-21T14:24:02;19;16;
31330;PMS5003;34067;39.548;-76.088;2023-03-21T14:26:33;22;17;
31330;PMS5003;34067;39.548;-76.088;2023-03-21T14:29:04;19;18;
31330;PMS5003;34067;39.548;-76.088;2023-03-21T14:31:34;20;19;
31330;PMS5003;34067;39.548;-76.088;2023-03-21T14:34:02;24;21;
31330;PMS5003;34067;39.548;-76.088;2023-03-21T14:36:32;18;17;
31330;PMS5003;34067;39.548;-76.088;2023-03-21T14:39:06;20;18;
31330;PMS5003;34067;39.548;-76.088;2023-03-21T14:41:43;19;18;
31330;PMS5003;34067;39.548;-76.088;2023-03-21T14:44:15;21;20;
31330;PMS5003;34067;39.548;-76.088;2023-03-21T14:46:45;20;19;
31330;PMS5003;34067;39.548;-76.088;2023-03-21T14:49:17;19;18;
31330;PMS5003;34067;39.548;-76.088;2023-03-21T14:51:51;18;17;
31330;PMS5003;34067;39.548;-76.088;2023-03-21T14:54:21;24;21;
31330;PMS5003;34067;39.548;-76.088;2023-03-21T14:56:51;21;21;
31330;PMS5003;34067;39.548;-76.088;2023-03-21T14:59:27;22;21;
31330;PMS5003;34067;39.548;-76.088;2023-03-21T15:01:59;26;23;
31330;PMS5003;34067;39.548;-76.088;2023-03-21T15:04:30;26;20;
31330;PMS5003;34067;39.548;-76.088;2023-03-21T15:06:59;19;19;
31330;PMS5003;34067;39.548;-76.088;2023-03-21T15:09:28;21;17;
31330;PMS5003;34067;39.548;-76.088;2023-03-21T15:11:58;21;19;
31330;PMS5003;34067;39.548;-76.088;2023-03-21T15:14:28;21;21;
31330;PMS5003;34067;39.548;-76.088;2023-03-21T15:16:59;22;21;
31330;PMS5003;34067;39.548;-76.088;2023-03-21T15:19:30;23;20;
31330;PMS5003;34067;39.548;-76.088;2023-03-21T15:22:01;22;21;
31330;PMS5003;34067;39.548;-76.088;2023-03-21T15:24:35;24;22;
31330;PMS5003;34067;39.548;-76.088;2023-03-21T15:27:10;18;17;
31330;PMS5003;34067;39.548;-76.088;2023-03-21T15:29:40;23;21;
31330;PMS5003;34067;39.548;-76.088;2023-03-21T15:32:12;19;19;
31330;PMS5003;34067;39.548;-76.088;2023-03-21T15:34:43;21;20;
31330;PMS5003;34067;39.548;-76.088;2023-03-21T15:37:14;22;21;
31330;PMS5003;34067;39.548;-76.088;2023-03-21T15:39:44;19;17;
31330;PMS5003;34067;39.548;-76.088;2023-03-21T15:42:29;18;17;
31330;PMS5003;34067;39.548;-76.088;2023-03-21T15:45:09;23;18;
31330;PMS5003;34067;39.548;-76.088;2023-03-21T15:48:01;20;20;
31330;PMS5003;34067;39.548;-76.088;2023-03-21T15:50:34;19;18;
31330;PMS5003;34067;39.548;-76.088;2023-03-21T15:53:06;21;20;
31330;PMS5003;34067;39.548;-76.088;2023-03-21T15:55:42;20;19;
31330;PMS5003;34067;39.548;-76.088;2023-03-21T15:58:14;19;19;
31330;PMS5003;34067;39.548;-76.088;2023-03-21T16:00:47;17;15;
31330;PMS5003;34067;39.548;-76.088;2023-03-21T16:03:19;22;21;
31330;PMS5003;34067;39.548;-76.088;2023-03-21T16:06:13;18;18;
31330;PMS5003;34067;39.548;-76.088;2023-03-21T16:08:45;17;16;
31330;PMS5003;34067;39.548;-76.088;2023-03-21T16:11:17;17;16;
31330;PMS5003;34067;39.548;-76.088;2023-03-21T16:13:49;16;16;
31330;PMS5003;34067;39.548;-76.088;2023-03-21T16:16:20;18;16;
31330;PMS5003;34067;39.548;-76.088;2023-03-21T16:18:49;18;14;